Time;durP1;ratioP1;P1;durP2;ratioP2;P2;SDS_P1;SDS_P2;PMS_P1;PMS_P2;Temp;Humidity;BMP_temperature;BMP_pressure;BME280_temperature;BME280_humidity;BME280_pressure;Samples;Min_cycle;Max_cycle;Signal;HPM_P1;HPM_P2
2021/08/25 00:01:56;;;;;;;;;;;;;;;-142.75;83.30;77810.63;4989631;28;20314;-75
2021/08/25 00:04:21;;;;;;;;;;;;;;;-142.75;82.75;77810.63;5061448;28;20400;-76
2021/08/25 00:06:46;;;;;;;;;;;;;;;-142.75;82.55;77824.41;4989576;28;20278;-75
2021/08/25 00:09:12;;;;;;;;;;;;;;;-142.75;82.61;77824.41;4989260;28;19964;-75
2021/08/25 00:11:37;;;;;;;;;;;;;;;-142.75;82.92;77822.44;4991942;28;20091;-75
2021/08/25 00:14:02;;;;;;;;;;;;;;;-142.75;82.78;77834.25;5004841;28;20349;-76
2021/08/25 00:16:27;;;;;;;;;;;;;;;-142.75;82.63;77840.16;5073877;28;20394;-75
2021/08/25 00:18:52;;;;;;;;;;;;;;;-142.75;82.65;77850.00;5008809;28;20106;-76
2021/08/25 00:21:18;;;;;;;;;;;;;;;-142.75;82.59;77859.84;4995292;28;20363;-76
2021/08/25 00:23:43;;;;;;;;;;;;;;;-142.75;82.72;77867.72;5076111;28;19924;-76
2021/08/25 00:26:08;;;;;;;;;;;;;;;-142.75;83.12;77877.56;5007545;28;20371;-75
2021/08/25 00:28:34;;;;;;;;;;;;;;;-142.75;82.86;77875.59;5008514;28;19917;-76
2021/08/25 00:31:00;;;;;;;;;;;;;;;-142.75;83.14;77869.69;4999942;28;19914;-76
2021/08/25 00:33:25;;;;;;;;;;;;;;;-142.75;83.63;77875.59;4989154;28;20055;-76
2021/08/25 00:35:50;;;;;;;;;;;;;;;-142.75;84.00;77883.47;5061231;28;20311;-76
2021/08/25 00:38:15;;;;;;;;;;;;;;;-142.75;84.29;77881.50;5076189;28;19925;-76
2021/08/25 00:40:43;;;;;;;;;;;;;;;-142.75;84.55;77875.59;5075875;28;19935;-76
2021/08/25 00:43:09;;;;;;;;;;;;;;;-142.75;84.75;77879.53;4990044;28;19921;-75
2021/08/25 00:45:41;;;;;;;;;;;;;;;-142.75;84.66;77873.63;5064016;28;19917;-76
2021/08/25 00:48:07;;;;;;;;;;;;;;;-142.75;83.97;77846.06;5004303;28;19917;-76
2021/08/25 00:50:32;;;;;;;;;;;;;;;-142.75;83.51;77846.06;4994836;28;19913;-76
2021/08/25 00:52:57;;;;;;;;;;;;;;;-142.75;83.45;77861.81;5059333;28;19920;-76
2021/08/25 00:55:22;;;;;;;;;;;;;;;-142.75;83.43;77850.00;4988743;28;20401;-75
2021/08/25 00:57:48;;;;;;;;;;;;;;;-142.75;83.45;77865.75;5058902;28;19914;-76
2021/08/25 01:00:13;;;;;;;;;;;;;;;-142.75;83.44;77873.63;5008413;28;20346;-76
2021/08/25 01:02:50;;;;;;;;;;;;;;;-142.75;83.29;77881.50;5008163;28;19965;-75
2021/08/25 01:05:15;;;;;;;;;;;;;;;-142.75;83.37;77883.47;5075508;28;20371;-76
2021/08/25 01:07:42;;;;;;;;;;;;;;;-142.75;83.80;77889.38;5075619;28;19917;-76
2021/08/25 01:10:25;;;;;;;;;;;;;;;-142.75;83.78;77885.44;5007443;28;19936;-75
2021/08/25 01:12:51;;;;;;;;;;;;;;;-142.75;83.61;77881.50;5008005;28;19953;-74
2021/08/25 01:15:17;;;;;;;;;;;;;;;-142.75;83.63;77881.50;5075304;28;19913;-75
2021/08/25 01:17:43;;;;;;;;;;;;;;;-142.75;83.74;77893.31;5002484;28;19937;-76
2021/08/25 01:20:10;;;;;;;;;;;;;;;-142.75;83.63;77905.13;5068209;28;19983;-75
2021/08/25 01:22:36;;;;;;;;;;;;;;;-142.75;83.87;77911.06;5056164;28;19914;-76
2021/08/25 01:25:01;;;;;;;;;;;;;;;-142.75;84.26;77920.91;4994442;28;19966;-76
2021/08/25 01:27:28;;;;;;;;;;;;;;;-142.75;84.58;77924.84;5004634;28;19913;-77
2021/08/25 01:29:53;;;;;;;;;;;;;;;-142.75;84.93;77932.72;5057633;28;19948;-76
2021/08/25 01:32:19;;;;;;;;;;;;;;;-142.75;85.74;77932.72;4995455;28;20365;-75
2021/08/25 01:35:02;;;;;;;;;;;;;;;-142.75;86.04;77936.66;5067588;28;19913;-76
2021/08/25 01:37:28;;;;;;;;;;;;;;;-142.75;86.41;77940.59;4988202;28;19913;-76
2021/08/25 01:39:53;;;;;;;;;;;;;;;-142.75;86.39;77932.72;5000889;28;19917;-75
2021/08/25 01:42:19;;;;;;;;;;;;;;;-142.75;86.22;77920.91;5071516;28;20004;-76
2021/08/25 01:44:45;;;;;;;;;;;;;;;-142.75;85.75;77920.91;5074527;28;20408;-76
2021/08/25 01:47:10;;;;;;;;;;;;;;;-142.75;85.44;77932.72;5058281;28;20008;-77
2021/08/25 01:49:36;;;;;;;;;;;;;;;-142.75;85.16;77936.66;5006062;28;19924;-76
2021/08/25 01:52:01;;;;;;;;;;;;;;;-142.75;85.24;77948.47;5007169;28;19917;-77
2021/08/25 01:54:26;;;;;;;;;;;;;;;-142.75;84.93;77946.50;5007433;28;19948;-76
2021/08/25 01:56:51;;;;;;;;;;;;;;;-142.75;84.99;77956.34;5073621;28;19920;-75
2021/08/25 01:59:17;;;;;;;;;;;;;;;-142.75;85.44;77958.31;5073317;28;22188;-75
2021/08/25 02:01:42;;;;;;;;;;;;;;;-142.75;85.98;77954.38;5001642;28;19920;-75
2021/08/25 02:04:07;;;;;;;;;;;;;;;-142.75;86.41;77948.47;5071473;28;19914;-76
2021/08/25 02:06:33;;;;;;;;;;;;;;;-142.75;86.47;77934.69;5062467;28;19913;-75
2021/08/25 02:08:58;;;;;;;;;;;;;;;-142.75;86.33;77916.97;4999511;28;19917;-76
2021/08/25 02:11:23;;;;;;;;;;;;;;;-142.75;85.76;77924.84;4990228;28;19944;-75
2021/08/25 02:13:48;;;;;;;;;;;;;;;-142.75;85.66;77926.81;5071331;28;19921;-76
2021/08/25 02:16:14;;;;;;;;;;;;;;;-142.75;85.86;77938.63;5066159;28;20004;-76
2021/08/25 02:18:39;;;;;;;;;;;;;;;-142.75;86.01;77940.59;5005425;28;20102;-75
2021/08/25 02:21:04;;;;;;;;;;;;;;;-142.75;85.98;77944.53;4989946;28;20386;-75
2021/08/25 02:23:29;;;;;;;;;;;;;;;-142.75;85.94;77930.75;5000497;28;19919;-75
2021/08/25 02:25:54;;;;;;;;;;;;;;;-142.75;86.10;77936.66;4993715;28;20287;-75
2021/08/25 02:28:20;;;;;;;;;;;;;;;-142.75;86.38;77936.66;4987934;28;19964;-76
2021/08/25 02:30:45;;;;;;;;;;;;;;;-142.75;86.32;77928.78;4987398;28;19914;-75
2021/08/25 02:33:10;;;;;;;;;;;;;;;-142.75;85.61;77905.13;5001407;28;19959;-75
2021/08/25 02:35:35;;;;;;;;;;;;;;;-142.75;85.65;77901.19;4995834;28;19917;-75
2021/08/25 02:38:01;;;;;;;;;;;;;;;-142.75;85.29;77901.19;5073698;28;19966;-75
2021/08/25 02:40:26;;;;;;;;;;;;;;;-142.75;85.17;77905.13;5006409;28;19913;-75
2021/08/25 02:42:52;;;;;;;;;;;;;;;-142.75;84.90;77913.03;4997380;28;19914;-75
2021/08/25 02:45:17;;;;;;;;;;;;;;;-142.75;84.64;77920.91;4987377;28;19914;-75
2021/08/25 02:47:42;;;;;;;;;;;;;;;-142.75;84.82;77932.72;5071208;28;19925;-75
2021/08/25 02:50:07;;;;;;;;;;;;;;;-142.75;84.94;77928.78;5073263;28;19967;-74
2021/08/25 02:52:33;;;;;;;;;;;;;;;-142.75;85.32;77944.53;5006444;28;20008;-74
2021/08/25 02:54:58;;;;;;;;;;;;;;;-142.75;85.79;77956.34;5005377;28;19948;-74
2021/08/25 02:57:23;;;;;;;;;;;;;;;-142.75;86.07;77958.31;5006903;28;19917;-75
2021/08/25 02:59:48;;;;;;;;;;;;;;;-142.75;86.56;77964.22;5006220;28;19966;-74
2021/08/25 03:02:14;;;;;;;;;;;;;;;-142.75;86.84;77956.34;5074313;28;20435;-74
2021/08/25 03:04:39;;;;;;;;;;;;;;;-142.75;87.17;77964.22;5057573;28;20000;-74
2021/08/25 03:07:04;;;;;;;;;;;;;;;-142.75;87.48;77968.16;5058552;28;19913;-75
2021/08/25 03:09:29;;;;;;;;;;;;;;;-142.75;87.58;77974.06;4986682;28;20393;-74
2021/08/25 03:11:54;;;;;;;;;;;;;;;-142.75;87.79;77968.16;4986668;28;19949;-75
2021/08/25 03:14:19;;;;;;;;;;;;;;;-142.75;88.08;77976.03;5004630;28;19921;-74
2021/08/25 03:16:45;;;;;;;;;;;;;;;-142.75;88.19;77972.09;5006081;28;20071;-75
2021/08/25 03:19:10;;;;;;;;;;;;;;;-142.75;88.32;77976.03;5073782;28;20004;-74
2021/08/25 03:21:35;;;;;;;;;;;;;;;-142.75;88.45;77985.88;5073189;28;19920;-74
2021/08/25 03:24:00;;;;;;;;;;;;;;;-142.75;88.42;77983.91;4997409;28;19920;-75
2021/08/25 03:26:26;;;;;;;;;;;;;;;-142.75;88.21;77987.84;5055953;28;19912;-74
2021/08/25 03:28:51;;;;;;;;;;;;;;;-142.75;88.05;77989.81;4987261;28;19933;-75
2021/08/25 03:31:16;;;;;;;;;;;;;;;-142.75;88.04;77987.84;5054883;28;20337;-75
2021/08/25 03:33:41;;;;;;;;;;;;;;;-142.75;88.22;77991.78;4986828;28;20010;-75
2021/08/25 03:36:06;;;;;;;;;;;;;;;-142.75;88.13;77976.03;5059145;28;19919;-75
2021/08/25 03:38:31;;;;;;;;;;;;;;;-142.75;88.24;77964.22;4986700;28;20394;-75
2021/08/25 03:40:57;;;;;;;;;;;;;;;-142.75;88.27;77956.34;4986396;28;19936;-75
2021/08/25 03:43:22;;;;;;;;;;;;;;;-142.75;88.36;77956.34;4987294;28;21262;-76
2021/08/25 03:45:48;;;;;;;;;;;;;;;-142.75;88.77;77966.19;5055492;28;20454;-75
2021/08/25 03:48:13;;;;;;;;;;;;;;;-142.75;89.12;77960.28;5054627;28;20633;-75
2021/08/25 03:50:38;;;;;;;;;;;;;;;-142.75;89.54;77958.31;4986794;28;19914;-75
2021/08/25 03:53:03;;;;;;;;;;;;;;;-142.75;89.35;77964.22;4988179;28;19917;-75
2021/08/25 03:55:29;;;;;;;;;;;;;;;-142.75;89.33;77972.09;5060511;28;19912;-76
2021/08/25 03:57:54;;;;;;;;;;;;;;;-142.75;89.63;77970.13;5059340;28;20041;-76
2021/08/25 04:00:19;;;;;;;;;;;;;;;-142.75;89.63;77964.22;4989045;28;19914;-75
2021/08/25 04:02:44;;;;;;;;;;;;;;;-142.75;89.87;77976.03;4992408;28;19913;-75
2021/08/25 04:05:10;;;;;;;;;;;;;;;-142.75;90.00;77976.03;5008495;28;19914;-76
2021/08/25 04:07:35;;;;;;;;;;;;;;;-142.75;90.19;77962.25;5010082;28;19920;-77
2021/08/25 04:10:01;;;;;;;;;;;;;;;-142.75;90.00;77974.06;5077622;28;20058;-76
2021/08/25 04:12:26;;;;;;;;;;;;;;;-142.75;89.49;77974.06;5077256;28;19913;-76
2021/08/25 04:14:51;;;;;;;;;;;;;;;-142.75;89.23;77983.91;5009255;28;19919;-75
2021/08/25 04:17:16;;;;;;;;;;;;;;;-142.75;88.87;77987.84;5009660;28;20370;-75
2021/08/25 04:19:41;;;;;;;;;;;;;;;-142.75;88.82;77993.75;5009467;28;20361;-76
2021/08/25 04:22:07;;;;;;;;;;;;;;;-142.75;88.77;77993.75;5077276;28;19913;-76
2021/08/25 04:24:32;;;;;;;;;;;;;;;-142.75;88.83;77999.66;5009444;28;19959;-75
2021/08/25 04:26:57;;;;;;;;;;;;;;;-142.75;88.93;77993.75;5077041;28;20298;-75
2021/08/25 04:29:22;;;;;;;;;;;;;;;-142.75;88.94;78007.53;5009555;28;19939;-75
2021/08/25 04:31:47;;;;;;;;;;;;;;;-142.75;89.37;78019.34;5009324;28;20000;-75
2021/08/25 04:34:13;;;;;;;;;;;;;;;-142.75;89.57;78007.53;5076830;28;20586;-75
2021/08/25 04:36:38;;;;;;;;;;;;;;;-142.75;90.08;78013.44;5076724;28;19995;-75
2021/08/25 04:39:03;;;;;;;;;;;;;;;-142.75;90.25;78003.59;5076825;28;19924;-75
2021/08/25 04:41:28;;;;;;;;;;;;;;;-142.75;90.53;77997.69;5008629;28;19948;-75
2021/08/25 04:43:55;;;;;;;;;;;;;;;-142.75;90.69;77976.03;5075823;28;20386;-75
2021/08/25 04:46:20;;;;;;;;;;;;;;;-142.75;90.62;77964.22;5008823;28;19937;-75
2021/08/25 04:48:45;;;;;;;;;;;;;;;-142.75;90.03;77918.94;5008697;28;20378;-75
2021/08/25 04:51:11;;;;;;;;;;;;;;;-142.75;89.65;77913.03;5075911;28;19921;-75
2021/08/25 04:53:37;;;;;;;;;;;;;;;-142.75;89.36;77920.91;5076578;28;19913;-75
2021/08/25 04:56:02;;;;;;;;;;;;;;;-142.75;89.55;77915.00;5008577;28;19921;-75
2021/08/25 04:58:27;;;;;;;;;;;;;;;-142.75;89.75;77916.97;5008725;28;19936;-75
2021/08/25 05:00:52;;;;;;;;;;;;;;;-142.75;89.88;77899.22;5076599;28;20000;-75
2021/08/25 05:03:18;;;;;;;;;;;;;;;-142.75;90.15;77897.25;5008827;28;20008;-75
2021/08/25 05:05:43;;;;;;;;;;;;;;;-142.75;90.27;77877.56;5076306;28;20418;-75
2021/08/25 05:08:08;;;;;;;;;;;;;;;-142.75;90.25;77865.75;5008489;28;19921;-75
2021/08/25 05:10:33;;;;;;;;;;;;;;;-142.75;90.17;77848.03;5004401;23;19930;-74
2021/08/25 05:12:58;;;;;;;;;;;;;;;-142.75;90.08;77857.88;4966908;28;19925;-73
2021/08/25 05:15:23;;;;;;;;;;;;;;;-142.75;89.93;77838.19;4968474;28;19937;-74
2021/08/25 05:17:49;;;;;;;;;;;;;;;-142.75;90.02;77830.31;4968070;28;20023;-74
2021/08/25 05:20:14;;;;;;;;;;;;;;;-142.75;89.99;77824.41;5040963;28;20367;-75
2021/08/25 05:22:39;;;;;;;;;;;;;;;-142.75;90.15;77824.41;4988362;28;19914;-74
2021/08/25 05:25:05;;;;;;;;;;;;;;;-142.75;90.34;77816.53;4988326;28;20390;-74
2021/08/25 05:27:30;;;;;;;;;;;;;;;-142.75;90.63;77806.69;4988020;28;19918;-75
2021/08/25 05:29:55;;;;;;;;;;;;;;;-142.75;90.71;77800.78;5044299;28;19986;-74
2021/08/25 05:32:20;;;;;;;;;;;;;;;-142.75;90.92;77792.91;4977207;28;20369;-75
2021/08/25 05:34:46;;;;;;;;;;;;;;;-142.75;90.74;77785.03;4968798;28;19921;-75
2021/08/25 05:37:11;;;;;;;;;;;;;;;-142.75;90.66;77775.19;4968886;28;19969;-74
2021/08/25 05:39:36;;;;;;;;;;;;;;;-142.75;90.82;77781.09;4975417;28;19929;-75
2021/08/25 05:42:01;;;;;;;;;;;;;;;-142.75;90.67;77765.34;4987569;28;20000;-74
2021/08/25 05:44:27;;;;;;;;;;;;;;;-142.75;90.61;77749.59;5055103;28;19914;-73
2021/08/25 05:46:52;;;;;;;;;;;;;;;-142.75;90.68;77735.81;5055096;28;19996;-74
2021/08/25 05:49:17;;;;;;;;;;;;;;;-142.75;90.52;77720.03;4987809;28;19940;-75
2021/08/25 05:51:42;;;;;;;;;;;;;;;-142.75;90.25;77702.31;5054627;28;19913;-75
2021/08/25 05:54:09;;;;;;;;;;;;;;;-142.75;89.76;77686.56;4987731;28;19913;-74
2021/08/25 05:56:34;;;;;;;;;;;;;;;-142.75;89.57;77672.78;4987555;28;19917;-72
2021/08/25 05:58:59;;;;;;;;;;;;;;;-142.75;89.17;77653.09;4988267;28;19914;-73
2021/08/25 06:01:25;;;;;;;;;;;;;;;-142.75;88.62;77633.41;5054837;28;19920;-75
2021/08/25 06:03:50;;;;;;;;;;;;;;;-142.75;88.11;77609.78;4987539;28;19949;-75
2021/08/25 06:06:16;;;;;;;;;;;;;;;-142.75;87.05;77588.13;4987716;28;19999;-74
2021/08/25 06:08:41;;;;;;;;;;;;;;;-142.75;86.33;77562.53;4983471;28;19979;-75
2021/08/25 06:11:06;;;;;;;;;;;;;;;-142.75;85.34;77519.22;5034948;28;20348;-73
2021/08/25 06:13:32;;;;;;;;;;;;;;;-142.75;83.99;77487.72;4973595;28;19914;-74
2021/08/25 06:15:57;;;;;;;;;;;;;;;-142.75;82.55;77452.25;5034984;28;19918;-75
2021/08/25 06:18:22;;;;;;;;;;;;;;;-142.75;81.20;77406.97;5034764;28;19997;-74
2021/08/25 06:20:47;;;;;;;;;;;;;;;-142.75;79.76;77351.84;4967945;28;19918;-74
2021/08/25 06:23:13;;;;;;;;;;;;;;;-142.75;76.95;77263.25;4968268;28;19929;-75
2021/08/25 06:25:39;;;;;;;;;;;;;;;-142.75;74.75;77214.03;4967929;28;20001;-75
2021/08/25 06:28:05;;;;;;;;;;;;;;;-142.75;72.70;77156.94;4968119;28;19925;-75
2021/08/25 06:30:30;;;;;;;;;;;;;;;-142.75;70.64;77107.72;4967902;28;19914;-76
2021/08/25 06:32:55;;;;;;;;;;;;;;;-142.75;68.43;77060.47;4972238;28;19929;-77
2021/08/25 06:35:21;;;;;;;;;;;;;;;-142.75;67.43;77019.13;4987130;28;20012;-74
2021/08/25 06:37:47;;;;;;;;;;;;;;;-142.75;65.52;76964.00;4987393;28;19914;-75
2021/08/25 06:40:12;;;;;;;;;;;;;;;-142.75;63.43;76899.03;5054296;28;19914;-76
2021/08/25 06:42:38;;;;;;;;;;;;;;;-142.75;61.84;76838.00;4987213;28;19921;-76
2021/08/25 06:45:04;;;;;;;;;;;;;;;-142.75;60.16;76806.50;5054108;28;19962;-75
2021/08/25 06:47:29;;;;;;;;;;;;;;;-142.75;58.76;76757.31;4984191;28;19922;-77
2021/08/25 06:49:54;;;;;;;;;;;;;;;-142.75;57.60;76702.19;4981715;28;19914;-75
2021/08/25 06:52:19;;;;;;;;;;;;;;;-142.75;55.69;76656.91;4966998;28;19957;-75
2021/08/25 06:54:44;;;;;;;;;;;;;;;-142.75;54.21;76619.50;5033614;28;19914;-76
2021/08/25 06:57:10;;;;;;;;;;;;;;;-142.75;53.92;76609.66;4983993;28;19918;-74
2021/08/25 06:59:35;;;;;;;;;;;;;;;-142.75;53.44;76593.91;4986217;28;19914;-75
2021/08/25 07:02:00;;;;;;;;;;;;;;;-142.75;53.72;76560.44;5050760;28;19918;-75
2021/08/25 07:04:25;;;;;;;;;;;;;;;-142.75;52.52;76507.31;5033423;28;20010;-75
2021/08/25 07:06:50;;;;;;;;;;;;;;;-142.75;51.00;76467.94;4973877;28;19924;-76
2021/08/25 07:09:15;;;;;;;;;;;;;;;-142.75;50.21;76462.03;5052762;28;19922;-75
2021/08/25 07:11:41;;;;;;;;;;;;;;;-142.75;49.58;76422.66;5052659;28;19924;-76
2021/08/25 07:14:06;;;;;;;;;;;;;;;-142.75;49.79;76365.56;5043925;28;19957;-77
2021/08/25 07:16:34;;;;;;;;;;;;;;;-142.75;48.08;76312.44;5033166;28;19922;-76
2021/08/25 07:19:00;;;;;;;;;;;;;;;-142.75;47.47;76357.69;5035033;28;19964;-78
2021/08/25 07:21:25;;;;;;;;;;;;;;;-142.75;47.49;76401.00;4971237;28;19968;-76
2021/08/25 07:23:50;;;;;;;;;;;;;;;-142.75;48.69;76381.31;5033103;28;19973;-75
2021/08/25 07:26:16;;;;;;;;;;;;;;;-142.75;48.35;76341.97;4967673;28;19937;-77
2021/08/25 07:28:44;;;;;;;;;;;;;;;-142.75;47.18;76290.78;5034520;28;19922;-76
2021/08/25 07:31:09;;;;;;;;;;;;;;;-142.75;46.48;76263.22;4968974;28;19914;-76
2021/08/25 07:33:34;;;;;;;;;;;;;;;-142.75;46.02;76223.84;5035311;28;19914;-76
2021/08/25 07:35:59;;;;;;;;;;;;;;;-142.75;44.72;76192.38;5034414;28;20412;-77
2021/08/25 07:38:25;;;;;;;;;;;;;;;-142.75;44.44;76188.44;5035998;28;19918;-77
2021/08/25 07:40:50;;;;;;;;;;;;;;;-142.75;44.14;76093.94;5052912;28;19930;-76
2021/08/25 07:43:15;;;;;;;;;;;;;;;-142.75;43.74;76009.31;4988853;28;20308;-76
2021/08/25 07:45:40;;;;;;;;;;;;;;;-142.75;41.48;75932.56;4988882;28;19963;-77
2021/08/25 07:48:06;;;;;;;;;;;;;;;-142.75;40.84;75905.00;4988831;28;19917;-76
2021/08/25 07:50:31;;;;;;;;;;;;;;;-142.75;40.98;75912.88;5055927;28;20482;-76
2021/08/25 07:52:56;;;;;;;;;;;;;;;-142.75;40.60;75942.41;4988691;28;20302;-75
2021/08/25 07:55:21;;;;;;;;;;;;;;;-142.75;40.22;75853.84;4988430;28;19967;-76
2021/08/25 07:57:46;;;;;;;;;;;;;;;-142.75;39.66;75771.16;5056514;28;19966;-76
2021/08/25 08:00:12;;;;;;;;;;;;;;;-142.75;38.42;75751.50;4988909;28;20000;-76
2021/08/25 08:02:37;;;;;;;;;;;;;;;-142.75;37.28;75684.56;5056402;28;19920;-77
2021/08/25 08:05:04;;;;;;;;;;;;;;;-142.75;36.12;75678.66;5055822;28;19970;-77
2021/08/25 08:07:29;;;;;;;;;;;;;;;-142.75;36.22;75623.56;4988288;28;19913;-76
2021/08/25 08:09:54;;;;;;;;;;;;;;;-142.75;35.89;75586.19;4988012;28;19921;-76
2021/08/25 08:12:19;;;;;;;;;;;;;;;-142.75;34.27;75519.25;4988565;28;19913;-76
2021/08/25 08:14:44;;;;;;;;;;;;;;;-142.75;34.17;75483.84;5050556;28;19921;-76
2021/08/25 08:17:10;;;;;;;;;;;;;;;-142.75;34.03;75454.31;4970854;28;20008;-76
2021/08/25 08:19:35;;;;;;;;;;;;;;;-142.75;34.14;75407.09;4968854;28;19921;-76
2021/08/25 08:22:01;;;;;;;;;;;;;;;-142.75;33.11;75389.38;4969002;28;19969;-77
2021/08/25 08:24:27;;;;;;;;;;;;;;;-142.75;33.24;75409.06;4968016;28;19918;-76
2021/08/25 08:26:52;;;;;;;;;;;;;;;-142.75;33.94;75424.81;5055464;28;20309;-76
2021/08/25 08:29:18;;;;;;;;;;;;;;;-142.75;33.88;75387.41;4988647;28;19931;-76
2021/08/25 08:31:43;;;;;;;;;;;;;;;-142.75;32.93;75432.69;4988244;28;19914;-76
2021/08/25 08:34:08;;;;;;;;;;;;;;;-142.75;33.86;75468.09;4977263;28;19921;-76
2021/08/25 08:36:33;;;;;;;;;;;;;;;-142.75;34.39;75474.00;4988070;28;20390;-76
2021/08/25 08:38:59;;;;;;;;;;;;;;;-142.75;34.01;75472.03;5042421;28;20383;-76
2021/08/25 08:41:24;;;;;;;;;;;;;;;-142.75;33.91;75460.22;4978751;28;19918;-75
2021/08/25 08:43:51;;;;;;;;;;;;;;;-142.75;33.44;75416.94;4982505;28;19918;-76
2021/08/25 08:46:17;;;;;;;;;;;;;;;-142.75;33.31;75365.75;4978491;28;20406;-76
2021/08/25 08:48:43;;;;;;;;;;;;;;;-142.75;33.16;75314.59;4978355;28;19976;-77
2021/08/25 08:51:12;;;;;;;;;;;;;;;-142.75;32.62;75306.72;5041942;28;19914;-76
2021/08/25 08:53:37;;;;;;;;;;;;;;;-142.75;31.97;75224.09;4978098;28;20420;-76
2021/08/25 08:56:03;;;;;;;;;;;;;;;-142.75;32.11;75281.16;4984052;28;19918;-77
2021/08/25 08:58:28;;;;;;;;;;;;;;;-142.75;31.99;75247.69;4977092;28;19967;-76
2021/08/25 09:00:53;;;;;;;;;;;;;;;-142.75;31.59;75251.63;4980670;28;20004;-76
2021/08/25 09:03:20;;;;;;;;;;;;;;;-142.75;32.62;75267.38;5046612;28;19961;-76
2021/08/25 09:05:46;;;;;;;;;;;;;;;-142.75;31.51;75200.47;5047453;28;19914;-77
2021/08/25 09:08:11;;;;;;;;;;;;;;;-142.75;30.98;75133.56;4970522;28;19929;-76
2021/08/25 09:10:38;;;;;;;;;;;;;;;-142.75;30.87;75115.84;4971115;28;19914;-76
2021/08/25 09:13:10;;;;;;;;;;;;;;;-142.75;32.19;75133.56;4975334;28;19914;-76
2021/08/25 09:15:36;;;;;;;;;;;;;;;-142.75;31.84;75117.81;5035620;28;19921;-76
2021/08/25 09:18:20;;;;;;;;;;;;;;;-142.75;30.11;75135.53;5036819;28;19929;-76
2021/08/25 09:20:48;;;;;;;;;;;;;;;-142.75;31.00;75198.50;5036459;28;20371;-76
2021/08/25 09:23:13;;;;;;;;;;;;;;;-142.75;32.14;75361.84;4969967;28;20291;-76
2021/08/25 09:25:38;;;;;;;;;;;;;;;-142.75;32.29;75330.34;4970254;28;19918;-76
2021/08/25 09:28:05;;;;;;;;;;;;;;;-142.75;31.62;75267.38;5052673;28;20019;-77
2021/08/25 09:30:49;;;;;;;;;;;;;;;-142.75;31.90;75277.22;4977272;28;19920;-76
2021/08/25 09:33:14;;;;;;;;;;;;;;;-142.75;31.46;75135.53;5039403;28;19964;-76
2021/08/25 09:35:43;;;;;;;;;;;;;;;-142.75;29.91;75115.84;5037689;28;19914;-76
2021/08/25 09:38:15;;;;;;;;;;;;;;;-142.75;30.83;75137.50;5041689;28;19914;-77
2021/08/25 09:40:50;;;;;;;;;;;;;;;-142.75;31.18;75228.00;4988696;28;19946;-75
2021/08/25 09:43:28;;;;;;;;;;;;;;;-142.75;31.66;75314.59;4988057;28;19921;-77
2021/08/25 09:46:01;;;;;;;;;;;;;;;-142.75;32.36;75497.63;5041047;28;19932;-77
2021/08/25 09:48:37;;;;;;;;;;;;;;;-142.75;34.09;75564.53;5041409;28;19954;-78
2021/08/25 09:51:03;;;;;;;;;;;;;;;-142.75;34.80;75588.16;5044646;28;19959;-77
2021/08/25 09:53:28;;;;;;;;;;;;;;;-142.75;34.15;75597.97;4988685;28;19914;-76
2021/08/25 09:55:54;;;;;;;;;;;;;;;-142.75;35.01;75586.19;4988726;28;19926;-76
2021/08/25 09:58:20;;;;;;;;;;;;;;;-142.75;33.36;75460.22;5055717;28;19918;-77
2021/08/25 10:00:46;;;;;;;;;;;;;;;-142.75;33.84;75672.78;4979843;28;20291;-76
2021/08/25 10:03:11;;;;;;;;;;;;;;;-142.75;33.62;75474.00;4981277;28;19928;-76
2021/08/25 10:05:37;;;;;;;;;;;;;;;-142.75;32.26;75294.94;5055454;28;19914;-76
2021/08/25 10:08:04;;;;;;;;;;;;;;;-142.75;30.84;75273.28;4976911;28;19957;-76
2021/08/25 10:10:29;;;;;;;;;;;;;;;-142.75;31.94;75243.75;5034337;28;19957;-77
2021/08/25 10:12:54;;;;;;;;;;;;;;;-142.75;31.06;75172.91;4969365;28;21414;-76
2021/08/25 10:15:33;;;;;;;;;;;;;;;-142.75;30.59;75167.00;5035841;28;19914;-76
2021/08/25 10:17:58;;;;;;;;;;;;;;;-142.75;30.79;75218.19;5035860;28;19922;-76
2021/08/25 10:20:24;;;;;;;;;;;;;;;-142.75;30.55;75194.56;4969013;28;19914;-76
2021/08/25 10:22:50;;;;;;;;;;;;;;;-142.75;29.85;75143.41;5036170;28;20015;-77
2021/08/25 10:25:15;;;;;;;;;;;;;;;-142.75;29.47;75115.84;4967851;28;19918;-76
2021/08/25 10:27:59;;;;;;;;;;;;;;;-142.75;28.81;75131.59;4983676;28;19917;-76
2021/08/25 10:30:24;;;;;;;;;;;;;;;-142.75;30.33;75263.44;4987963;28;19925;-76
2021/08/25 10:32:52;;;;;;;;;;;;;;;-142.75;32.23;75444.47;4988408;28;19917;-76
2021/08/25 10:35:21;;;;;;;;;;;;;;;-142.75;31.04;75375.59;4988238;28;20339;-76
2021/08/25 10:37:47;;;;;;;;;;;;;;;-142.75;32.51;75485.81;5055276;28;19929;-76
2021/08/25 10:40:13;;;;;;;;;;;;;;;-142.75;34.30;75694.41;4969739;28;19914;-76
2021/08/25 10:42:41;;;;;;;;;;;;;;;-142.75;35.36;75836.13;4968949;28;20300;-75
2021/08/25 10:45:07;;;;;;;;;;;;;;;-142.75;35.39;75716.06;5035637;28;19921;-76
2021/08/25 10:47:51;;;;;;;;;;;;;;;-142.75;34.62;75562.56;4968588;28;20333;-76
2021/08/25 10:50:16;;;;;;;;;;;;;;;-142.75;32.48;75350.03;4968621;28;19953;-77
2021/08/25 10:52:41;;;;;;;;;;;;;;;-142.75;31.66;75365.75;5035353;28;20414;-75
2021/08/25 10:55:06;;;;;;;;;;;;;;;-142.75;32.38;75501.56;4968881;28;19921;-76
2021/08/25 10:57:31;;;;;;;;;;;;;;;-142.75;33.85;75625.53;5035194;28;20315;-76
2021/08/25 11:00:08;;;;;;;;;;;;;;;-142.75;33.84;75613.72;4968575;28;20353;-76
2021/08/25 11:02:40;;;;;;;;;;;;;;;-142.75;33.50;75499.59;5035056;28;19960;-76
2021/08/25 11:05:05;;;;;;;;;;;;;;;-142.75;31.98;75401.19;5035340;28;19965;-76
2021/08/25 11:07:31;;;;;;;;;;;;;;;-142.75;30.67;75381.50;4968818;28;19969;-76
2021/08/25 11:09:56;;;;;;;;;;;;;;;-142.75;31.01;75336.25;4968154;28;19918;-76
2021/08/25 11:12:22;;;;;;;;;;;;;;;-142.75;30.56;75233.91;5049028;28;19914;-76
2021/08/25 11:14:48;;;;;;;;;;;;;;;-142.75;29.51;75231.94;4988085;28;19917;-76
2021/08/25 11:17:13;;;;;;;;;;;;;;;-142.75;30.04;75204.41;5057613;28;20402;-76
2021/08/25 11:20:01;;;;;;;;;;;;;;;-142.75;29.33;75109.94;5058844;28;19920;-76
2021/08/25 11:22:29;;;;;;;;;;;;;;;-142.75;28.92;75092.25;5058972;28;19953;-76
2021/08/25 11:24:55;;;;;;;;;;;;;;;-142.75;29.04;75080.44;5058405;28;19918;-76
2021/08/25 11:27:25;;;;;;;;;;;;;;;-142.75;28.68;75090.28;5050729;28;19936;-76
2021/08/25 11:30:04;;;;;;;;;;;;;;;-142.75;29.17;75210.31;4989520;28;19925;-76
2021/08/25 11:32:29;;;;;;;;;;;;;;;-142.75;30.82;75503.53;5058756;28;19914;-76
2021/08/25 11:34:55;;;;;;;;;;;;;;;-142.75;31.66;75509.44;4990523;28;20000;-76
2021/08/25 11:37:20;;;;;;;;;;;;;;;-142.75;31.88;75456.28;4983281;28;19957;-76
2021/08/25 11:40:03;;;;;;;;;;;;;;;-142.75;31.24;75387.41;4979923;28;20367;-76
2021/08/25 11:42:29;;;;;;;;;;;;;;;-142.75;29.70;75336.25;5038876;28;20445;-76
2021/08/25 11:44:54;;;;;;;;;;;;;;;-142.75;29.40;75344.13;4971562;28;19921;-76
2021/08/25 11:47:20;;;;;;;;;;;;;;;-142.75;29.90;75361.84;5038420;28;19937;-76
2021/08/25 11:49:46;;;;;;;;;;;;;;;-142.75;30.65;75391.34;4971404;28;20376;-75
2021/08/25 11:52:12;;;;;;;;;;;;;;;-142.75;31.62;75446.44;4990351;28;20348;-76
2021/08/25 11:54:38;;;;;;;;;;;;;;;-142.75;31.58;75523.19;5040442;28;19914;-77
2021/08/25 11:57:04;;;;;;;;;;;;;;;-142.75;33.17;75641.28;4987507;28;20493;-76
2021/08/25 11:59:30;;;;;;;;;;;;;;;-142.75;34.42;75751.50;5043308;28;19922;-76
2021/08/25 12:02:05;;;;;;;;;;;;;;;-142.75;35.04;75847.94;4989960;28;19913;-76
2021/08/25 12:04:30;;;;;;;;;;;;;;;-142.75;35.69;75873.50;4990363;28;19921;-76
2021/08/25 12:06:55;;;;;;;;;;;;;;;-142.75;35.64;75877.44;4986246;28;19914;-75
2021/08/25 12:09:31;;;;;;;;;;;;;;;-142.75;35.49;75871.53;4982726;28;20018;-76
2021/08/25 12:11:56;;;;;;;;;;;;;;;-142.75;36.21;75869.56;5057411;28;19920;-76
2021/08/25 12:14:21;;;;;;;;;;;;;;;-142.75;38.07;75977.81;5051492;28;19914;-75
2021/08/25 12:17:06;;;;;;;;;;;;;;;-142.75;39.23;76060.50;5006846;22;19922;-76
2021/08/25 12:19:34;;;;;;;;;;;;;;;-142.75;39.20;76113.63;4988846;28;19929;-75
2021/08/25 12:22:17;;;;;;;;;;;;;;;-142.75;40.19;76115.59;4989931;28;19946;-75
2021/08/25 12:24:43;;;;;;;;;;;;;;;-142.75;40.56;76090.00;4991155;28;19932;-75